sensor_id;sensor_type;location;lat;lon;timestamp;P1;durP1;ratioP1;P2;durP2;ratioP2
43150;SDS011;28755;51.478;5.702;2023-07-24T00:01:58;5.22;;;2.85;;
43150;SDS011;28755;51.478;5.702;2023-07-24T00:04:23;4.20;;;3.30;;
43150;SDS011;28755;51.478;5.702;2023-07-24T00:06:49;4.35;;;2.97;;
43150;SDS011;28755;51.478;5.702;2023-07-24T00:09:15;4.10;;;3.25;;
43150;SDS011;28755;51.478;5.702;2023-07-24T00:11:40;7.95;;;3.50;;
43150;SDS011;28755;51.478;5.702;2023-07-24T00:14:06;9.50;;;3.50;;
43150;SDS011;28755;51.478;5.702;2023-07-24T00:16:31;4.88;;;3.00;;
43150;SDS011;28755;51.478;5.702;2023-07-24T00:18:57;6.78;;;3.40;;
43150;SDS011;28755;51.478;5.702;2023-07-24T00:21:22;4.60;;;3.10;;
43150;SDS011;28755;51.478;5.702;2023-07-24T00:23:48;4.63;;;3.25;;
43150;SDS011;28755;51.478;5.702;2023-07-24T00:26:14;6.38;;;3.75;;
43150;SDS011;28755;51.478;5.702;2023-07-24T00:28:39;7.65;;;3.60;;
43150;SDS011;28755;51.478;5.702;2023-07-24T00:31:05;8.45;;;4.15;;
43150;SDS011;28755;51.478;5.702;2023-07-24T00:33:30;7.00;;;4.35;;
43150;SDS011;28755;51.478;5.702;2023-07-24T00:35:56;6.28;;;4.43;;
43150;SDS011;28755;51.478;5.702;2023-07-24T00:38:25;5.95;;;4.20;;
43150;SDS011;28755;51.478;5.702;2023-07-24T00:40:50;12.98;;;4.43;;
43150;SDS011;28755;51.478;5.702;2023-07-24T00:43:16;6.65;;;4.32;;
43150;SDS011;28755;51.478;5.702;2023-07-24T00:45:42;9.15;;;4.70;;
43150;SDS011;28755;51.478;5.702;2023-07-24T00:48:09;7.28;;;4.18;;
43150;SDS011;28755;51.478;5.702;2023-07-24T00:50:35;7.55;;;4.75;;
43150;SDS011;28755;51.478;5.702;2023-07-24T00:53:02;10.75;;;5.10;;
43150;SDS011;28755;51.478;5.702;2023-07-24T00:55:28;7.63;;;5.05;;
43150;SDS011;28755;51.478;5.702;2023-07-24T00:57:54;7.38;;;5.13;;
43150;SDS011;28755;51.478;5.702;2023-07-24T01:00:22;9.18;;;5.28;;
43150;SDS011;28755;51.478;5.702;2023-07-24T01:02:48;10.23;;;5.47;;
43150;SDS011;28755;51.478;5.702;2023-07-24T01:05:14;9.15;;;5.85;;
43150;SDS011;28755;51.478;5.702;2023-07-24T01:07:40;10.18;;;5.43;;
43150;SDS011;28755;51.478;5.702;2023-07-24T01:10:05;8.50;;;4.93;;
43150;SDS011;28755;51.478;5.702;2023-07-24T01:15:14;12.30;;;6.07;;
43150;SDS011;28755;51.478;5.702;2023-07-24T01:17:49;7.90;;;4.97;;
43150;SDS011;28755;51.478;5.702;2023-07-24T01:20:18;10.80;;;5.72;;
43150;SDS011;28755;51.478;5.702;2023-07-24T01:22:48;8.95;;;5.72;;
43150;SDS011;28755;51.478;5.702;2023-07-24T01:25:53;9.35;;;6.03;;
43150;SDS011;28755;51.478;5.702;2023-07-24T01:28:20;9.23;;;5.95;;
43150;SDS011;28755;51.478;5.702;2023-07-24T01:30:46;8.70;;;5.80;;
43150;SDS011;28755;51.478;5.702;2023-07-24T01:33:12;9.63;;;6.18;;
43150;SDS011;28755;51.478;5.702;2023-07-24T01:35:39;14.52;;;6.70;;
43150;SDS011;28755;51.478;5.702;2023-07-24T01:38:08;10.33;;;6.53;;
43150;SDS011;28755;51.478;5.702;2023-07-24T01:40:34;10.30;;;6.30;;
43150;SDS011;28755;51.478;5.702;2023-07-24T01:43:00;11.48;;;6.30;;
43150;SDS011;28755;51.478;5.702;2023-07-24T01:45:26;10.05;;;6.70;;
43150;SDS011;28755;51.478;5.702;2023-07-24T01:47:51;13.80;;;6.70;;
43150;SDS011;28755;51.478;5.702;2023-07-24T01:50:17;12.82;;;7.32;;
43150;SDS011;28755;51.478;5.702;2023-07-24T01:52:42;11.50;;;6.80;;
43150;SDS011;28755;51.478;5.702;2023-07-24T01:55:10;10.90;;;7.15;;
43150;SDS011;28755;51.478;5.702;2023-07-24T01:57:35;12.25;;;7.25;;
43150;SDS011;28755;51.478;5.702;2023-07-24T02:00:01;12.90;;;7.88;;
43150;SDS011;28755;51.478;5.702;2023-07-24T02:02:27;11.13;;;7.22;;
43150;SDS011;28755;51.478;5.702;2023-07-24T02:04:52;10.32;;;7.47;;
43150;SDS011;28755;51.478;5.702;2023-07-24T02:07:18;14.40;;;7.38;;
43150;SDS011;28755;51.478;5.702;2023-07-24T02:09:44;13.07;;;7.40;;
43150;SDS011;28755;51.478;5.702;2023-07-24T02:12:09;10.88;;;6.97;;
43150;SDS011;28755;51.478;5.702;2023-07-24T02:14:35;10.73;;;6.75;;
43150;SDS011;28755;51.478;5.702;2023-07-24T02:17:01;15.25;;;7.55;;
43150;SDS011;28755;51.478;5.702;2023-07-24T02:19:26;17.65;;;7.22;;
43150;SDS011;28755;51.478;5.702;2023-07-24T02:21:52;9.63;;;6.80;;
43150;SDS011;28755;51.478;5.702;2023-07-24T02:24:17;12.27;;;7.68;;
43150;SDS011;28755;51.478;5.702;2023-07-24T02:26:43;14.90;;;7.68;;
43150;SDS011;28755;51.478;5.702;2023-07-24T02:29:08;14.15;;;7.03;;
43150;SDS011;28755;51.478;5.702;2023-07-24T02:31:34;12.68;;;7.15;;
43150;SDS011;28755;51.478;5.702;2023-07-24T02:33:59;11.07;;;7.28;;
43150;SDS011;28755;51.478;5.702;2023-07-24T02:36:25;15.57;;;8.25;;
43150;SDS011;28755;51.478;5.702;2023-07-24T02:38:50;13.27;;;7.65;;
43150;SDS011;28755;51.478;5.702;2023-07-24T02:41:16;17.55;;;8.40;;
43150;SDS011;28755;51.478;5.702;2023-07-24T02:43:41;15.88;;;8.50;;
43150;SDS011;28755;51.478;5.702;2023-07-24T02:46:07;14.23;;;8.20;;
43150;SDS011;28755;51.478;5.702;2023-07-24T02:48:32;13.63;;;8.23;;
43150;SDS011;28755;51.478;5.702;2023-07-24T02:50:58;12.50;;;7.55;;
43150;SDS011;28755;51.478;5.702;2023-07-24T02:53:24;13.45;;;7.78;;
43150;SDS011;28755;51.478;5.702;2023-07-24T02:55:50;13.20;;;7.68;;
43150;SDS011;28755;51.478;5.702;2023-07-24T02:58:15;14.95;;;8.05;;
43150;SDS011;28755;51.478;5.702;2023-07-24T03:00:41;12.05;;;7.35;;
43150;SDS011;28755;51.478;5.702;2023-07-24T03:03:06;13.82;;;8.27;;
43150;SDS011;28755;51.478;5.702;2023-07-24T03:05:33;13.27;;;8.38;;
43150;SDS011;28755;51.478;5.702;2023-07-24T03:07:59;24.33;;;9.18;;
43150;SDS011;28755;51.478;5.702;2023-07-24T03:10:25;21.08;;;8.20;;
43150;SDS011;28755;51.478;5.702;2023-07-24T03:12:50;14.80;;;5.93;;
43150;SDS011;28755;51.478;5.702;2023-07-24T03:15:16;8.55;;;4.32;;
43150;SDS011;28755;51.478;5.702;2023-07-24T03:17:42;6.70;;;4.60;;
43150;SDS011;28755;51.478;5.702;2023-07-24T03:20:18;6.75;;;4.10;;
43150;SDS011;28755;51.478;5.702;2023-07-24T03:22:45;6.78;;;4.07;;
43150;SDS011;28755;51.478;5.702;2023-07-24T03:25:10;8.48;;;3.90;;
43150;SDS011;28755;51.478;5.702;2023-07-24T03:27:36;6.03;;;3.78;;
43150;SDS011;28755;51.478;5.702;2023-07-24T03:30:02;4.50;;;3.28;;
43150;SDS011;28755;51.478;5.702;2023-07-24T03:32:28;6.50;;;3.67;;
43150;SDS011;28755;51.478;5.702;2023-07-24T03:34:54;4.85;;;3.22;;
43150;SDS011;28755;51.478;5.702;2023-07-24T03:37:19;6.03;;;3.33;;
43150;SDS011;28755;51.478;5.702;2023-07-24T03:39:45;4.82;;;3.15;;
43150;SDS011;28755;51.478;5.702;2023-07-24T03:42:10;4.35;;;3.25;;
43150;SDS011;28755;51.478;5.702;2023-07-24T03:44:39;5.15;;;3.25;;
43150;SDS011;28755;51.478;5.702;2023-07-24T03:47:05;5.75;;;3.38;;
43150;SDS011;28755;51.478;5.702;2023-07-24T03:49:32;4.63;;;3.13;;
43150;SDS011;28755;51.478;5.702;2023-07-24T03:51:57;6.43;;;3.58;;
43150;SDS011;28755;51.478;5.702;2023-07-24T03:54:23;5.70;;;3.85;;
43150;SDS011;28755;51.478;5.702;2023-07-24T03:56:49;5.68;;;3.70;;
43150;SDS011;28755;51.478;5.702;2023-07-24T03:59:14;4.63;;;3.40;;
43150;SDS011;28755;51.478;5.702;2023-07-24T04:01:40;5.82;;;4.15;;
43150;SDS011;28755;51.478;5.702;2023-07-24T04:04:05;5.28;;;3.55;;
43150;SDS011;28755;51.478;5.702;2023-07-24T04:06:31;4.38;;;3.30;;
43150;SDS011;28755;51.478;5.702;2023-07-24T04:08:56;4.57;;;3.50;;
43150;SDS011;28755;51.478;5.702;2023-07-24T04:11:22;4.82;;;3.80;;
43150;SDS011;28755;51.478;5.702;2023-07-24T04:13:48;5.93;;;3.80;;
43150;SDS011;28755;51.478;5.702;2023-07-24T04:16:13;4.43;;;3.28;;
43150;SDS011;28755;51.478;5.702;2023-07-24T04:18:39;6.47;;;3.78;;
43150;SDS011;28755;51.478;5.702;2023-07-24T04:21:04;4.40;;;3.70;;
43150;SDS011;28755;51.478;5.702;2023-07-24T04:23:30;4.63;;;3.60;;
43150;SDS011;28755;51.478;5.702;2023-07-24T04:25:55;4.75;;;3.50;;
43150;SDS011;28755;51.478;5.702;2023-07-24T04:28:21;3.90;;;3.30;;
43150;SDS011;28755;51.478;5.702;2023-07-24T04:30:46;4.60;;;3.72;;
43150;SDS011;28755;51.478;5.702;2023-07-24T04:33:12;4.45;;;3.50;;
43150;SDS011;28755;51.478;5.702;2023-07-24T04:35:37;7.63;;;3.88;;
43150;SDS011;28755;51.478;5.702;2023-07-24T04:38:03;5.63;;;3.03;;
43150;SDS011;28755;51.478;5.702;2023-07-24T04:40:28;4.82;;;3.50;;
43150;SDS011;28755;51.478;5.702;2023-07-24T04:42:54;5.93;;;3.78;;
43150;SDS011;28755;51.478;5.702;2023-07-24T04:45:19;5.10;;;3.97;;
43150;SDS011;28755;51.478;5.702;2023-07-24T04:47:45;5.18;;;4.10;;
43150;SDS011;28755;51.478;5.702;2023-07-24T04:50:11;5.13;;;3.90;;
43150;SDS011;28755;51.478;5.702;2023-07-24T04:52:36;6.72;;;3.55;;
43150;SDS011;28755;51.478;5.702;2023-07-24T04:55:02;6.75;;;4.50;;
43150;SDS011;28755;51.478;5.702;2023-07-24T04:57:28;5.93;;;4.22;;
43150;SDS011;28755;51.478;5.702;2023-07-24T04:59:53;7.50;;;4.18;;
43150;SDS011;28755;51.478;5.702;2023-07-24T05:02:19;8.45;;;3.90;;
43150;SDS011;28755;51.478;5.702;2023-07-24T05:04:44;5.38;;;4.05;;
43150;SDS011;28755;51.478;5.702;2023-07-24T05:07:10;5.03;;;3.97;;
43150;SDS011;28755;51.478;5.702;2023-07-24T05:09:35;6.28;;;4.00;;
43150;SDS011;28755;51.478;5.702;2023-07-24T05:12:01;5.85;;;4.15;;
43150;SDS011;28755;51.478;5.702;2023-07-24T05:14:27;4.35;;;3.95;;
43150;SDS011;28755;51.478;5.702;2023-07-24T05:16:52;9.93;;;4.65;;
43150;SDS011;28755;51.478;5.702;2023-07-24T05:19:18;4.80;;;3.85;;
43150;SDS011;28755;51.478;5.702;2023-07-24T05:21:43;5.53;;;4.40;;
43150;SDS011;28755;51.478;5.702;2023-07-24T05:24:09;7.18;;;4.50;;
43150;SDS011;28755;51.478;5.702;2023-07-24T05:26:34;7.10;;;4.28;;
43150;SDS011;28755;51.478;5.702;2023-07-24T05:29:00;7.00;;;4.30;;
43150;SDS011;28755;51.478;5.702;2023-07-24T05:31:25;5.05;;;4.00;;
43150;SDS011;28755;51.478;5.702;2023-07-24T05:33:51;5.97;;;4.40;;
43150;SDS011;28755;51.478;5.702;2023-07-24T05:36:16;5.47;;;3.80;;
43150;SDS011;28755;51.478;5.702;2023-07-24T05:38:42;6.30;;;3.92;;
43150;SDS011;28755;51.478;5.702;2023-07-24T05:41:07;4.70;;;4.20;;
43150;SDS011;28755;51.478;5.702;2023-07-24T05:43:33;11.00;;;4.30;;
43150;SDS011;28755;51.478;5.702;2023-07-24T05:45:58;5.05;;;3.67;;
43150;SDS011;28755;51.478;5.702;2023-07-24T05:48:24;5.70;;;4.32;;
43150;SDS011;28755;51.478;5.702;2023-07-24T05:50:50;7.35;;;3.60;;
43150;SDS011;28755;51.478;5.702;2023-07-24T05:53:16;5.55;;;4.00;;
43150;SDS011;28755;51.478;5.702;2023-07-24T05:55:42;3.80;;;3.35;;
43150;SDS011;28755;51.478;5.702;2023-07-24T05:58:08;7.07;;;3.50;;
43150;SDS011;28755;51.478;5.702;2023-07-24T06:00:34;4.13;;;3.70;;
43150;SDS011;28755;51.478;5.702;2023-07-24T06:03:01;4.55;;;3.80;;
43150;SDS011;28755;51.478;5.702;2023-07-24T06:05:27;5.80;;;4.25;;
43150;SDS011;28755;51.478;5.702;2023-07-24T06:07:52;5.47;;;4.43;;
43150;SDS011;28755;51.478;5.702;2023-07-24T06:10:18;5.38;;;4.88;;
43150;SDS011;28755;51.478;5.702;2023-07-24T06:12:44;6.15;;;4.60;;
43150;SDS011;28755;51.478;5.702;2023-07-24T06:15:09;8.13;;;4.32;;
43150;SDS011;28755;51.478;5.702;2023-07-24T06:17:35;5.85;;;4.50;;
43150;SDS011;28755;51.478;5.702;2023-07-24T06:20:00;7.13;;;4.40;;
43150;SDS011;28755;51.478;5.702;2023-07-24T06:22:26;8.27;;;4.38;;
43150;SDS011;28755;51.478;5.702;2023-07-24T06:24:51;5.03;;;4.40;;
43150;SDS011;28755;51.478;5.702;2023-07-24T06:27:17;5.57;;;4.32;;
43150;SDS011;28755;51.478;5.702;2023-07-24T06:29:42;5.32;;;3.85;;
43150;SDS011;28755;51.478;5.702;2023-07-24T06:32:08;4.75;;;3.75;;
43150;SDS011;28755;51.478;5.702;2023-07-24T06:34:34;5.30;;;3.40;;
43150;SDS011;28755;51.478;5.702;2023-07-24T06:36:59;4.13;;;3.60;;
43150;SDS011;28755;51.478;5.702;2023-07-24T06:39:25;7.03;;;3.58;;
43150;SDS011;28755;51.478;5.702;2023-07-24T06:41:51;4.07;;;3.03;;
43150;SDS011;28755;51.478;5.702;2023-07-24T06:44:17;6.43;;;3.33;;
43150;SDS011;28755;51.478;5.702;2023-07-24T06:46:43;3.78;;;3.28;;
43150;SDS011;28755;51.478;5.702;2023-07-24T06:49:09;4.15;;;3.42;;
43150;SDS011;28755;51.478;5.702;2023-07-24T06:51:36;4.43;;;3.17;;
43150;SDS011;28755;51.478;5.702;2023-07-24T06:54:02;4.35;;;3.10;;
43150;SDS011;28755;51.478;5.702;2023-07-24T06:56:27;5.80;;;3.33;;
43150;SDS011;28755;51.478;5.702;2023-07-24T06:58:53;3.47;;;3.17;;
43150;SDS011;28755;51.478;5.702;2023-07-24T07:01:18;5.38;;;3.70;;
43150;SDS011;28755;51.478;5.702;2023-07-24T07:03:44;4.78;;;3.75;;
43150;SDS011;28755;51.478;5.702;2023-07-24T07:06:09;4.05;;;3.13;;
43150;SDS011;28755;51.478;5.702;2023-07-24T07:08:36;4.10;;;3.22;;
43150;SDS011;28755;51.478;5.702;2023-07-24T07:11:02;4.82;;;3.70;;
43150;SDS011;28755;51.478;5.702;2023-07-24T07:13:27;4.18;;;3.33;;
43150;SDS011;28755;51.478;5.702;2023-07-24T07:15:53;5.80;;;3.30;;
43150;SDS011;28755;51.478;5.702;2023-07-24T07:18:18;4.93;;;3.30;;
43150;SDS011;28755;51.478;5.702;2023-07-24T07:20:45;4.05;;;3.33;;
43150;SDS011;28755;51.478;5.702;2023-07-24T07:23:11;7.60;;;3.58;;
43150;SDS011;28755;51.478;5.702;2023-07-24T07:25:37;4.13;;;3.65;;
43150;SDS011;28755;51.478;5.702;2023-07-24T07:28:02;5.40;;;3.70;;
43150;SDS011;28755;51.478;5.702;2023-07-24T07:30:28;6.07;;;3.60;;
43150;SDS011;28755;51.478;5.702;2023-07-24T07:32:54;4.90;;;2.95;;
43150;SDS011;28755;51.478;5.702;2023-07-24T07:35:19;5.32;;;3.60;;
43150;SDS011;28755;51.478;5.702;2023-07-24T07:37:45;4.80;;;3.60;;
43150;SDS011;28755;51.478;5.702;2023-07-24T07:40:10;4.15;;;3.28;;
43150;SDS011;28755;51.478;5.702;2023-07-24T07:42:36;4.63;;;3.53;;
43150;SDS011;28755;51.478;5.702;2023-07-24T07:45:02;3.88;;;3.40;;
43150;SDS011;28755;51.478;5.702;2023-07-24T07:47:28;5.07;;;3.40;;
43150;SDS011;28755;51.478;5.702;2023-07-24T07:49:53;7.45;;;3.50;;
43150;SDS011;28755;51.478;5.702;2023-07-24T07:52:19;3.72;;;3.28;;
43150;SDS011;28755;51.478;5.702;2023-07-24T07:54:47;5.82;;;3.30;;
43150;SDS011;28755;51.478;5.702;2023-07-24T07:57:15;5.47;;;3.65;;
43150;SDS011;28755;51.478;5.702;2023-07-24T07:59:41;5.55;;;3.90;;
43150;SDS011;28755;51.478;5.702;2023-07-24T08:02:06;8.98;;;3.60;;
43150;SDS011;28755;51.478;5.702;2023-07-24T08:04:32;4.88;;;3.58;;
43150;SDS011;28755;51.478;5.702;2023-07-24T08:06:58;4.97;;;3.30;;
43150;SDS011;28755;51.478;5.702;2023-07-24T08:09:23;5.18;;;3.92;;
43150;SDS011;28755;51.478;5.702;2023-07-24T08:11:49;6.82;;;3.83;;
43150;SDS011;28755;51.478;5.702;2023-07-24T08:14:16;7.75;;;3.50;;
43150;SDS011;28755;51.478;5.702;2023-07-24T08:16:42;4.07;;;3.20;;
43150;SDS011;28755;51.478;5.702;2023-07-24T08:19:08;5.40;;;3.20;;
43150;SDS011;28755;51.478;5.702;2023-07-24T08:21:33;5.40;;;3.00;;
43150;SDS011;28755;51.478;5.702;2023-07-24T08:23:59;4.32;;;2.90;;
43150;SDS011;28755;51.478;5.702;2023-07-24T08:26:26;5.25;;;3.00;;
43150;SDS011;28755;51.478;5.702;2023-07-24T08:28:52;3.70;;;2.90;;
43150;SDS011;28755;51.478;5.702;2023-07-24T08:31:18;3.80;;;2.60;;
43150;SDS011;28755;51.478;5.702;2023-07-24T08:33:44;5.30;;;2.70;;
43150;SDS011;28755;51.478;5.702;2023-07-24T08:36:09;5.65;;;2.55;;
43150;SDS011;28755;51.478;5.702;2023-07-24T08:38:36;4.78;;;3.00;;
43150;SDS011;28755;51.478;5.702;2023-07-24T08:41:06;4.65;;;2.92;;
43150;SDS011;28755;51.478;5.702;2023-07-24T08:43:34;5.43;;;2.97;;
43150;SDS011;28755;51.478;5.702;2023-07-24T08:46:01;4.85;;;3.47;;
43150;SDS011;28755;51.478;5.702;2023-07-24T08:48:32;4.18;;;3.20;;
43150;SDS011;28755;51.478;5.702;2023-07-24T08:51:01;5.93;;;3.55;;
43150;SDS011;28755;51.478;5.702;2023-07-24T08:53:38;5.55;;;3.42;;
43150;SDS011;28755;51.478;5.702;2023-07-24T08:56:05;7.47;;;3.67;;
43150;SDS011;28755;51.478;5.702;2023-07-24T08:58:32;5.78;;;3.80;;
43150;SDS011;28755;51.478;5.702;2023-07-24T09:00:59;6.00;;;3.83;;
43150;SDS011;28755;51.478;5.702;2023-07-24T09:03:26;6.25;;;3.78;;
43150;SDS011;28755;51.478;5.702;2023-07-24T09:05:52;5.55;;;3.90;;
43150;SDS011;28755;51.478;5.702;2023-07-24T09:08:30;5.32;;;3.92;;
43150;SDS011;28755;51.478;5.702;2023-07-24T09:11:01;7.68;;;3.95;;
43150;SDS011;28755;51.478;5.702;2023-07-24T09:13:28;11.23;;;4.35;;
43150;SDS011;28755;51.478;5.702;2023-07-24T09:15:54;4.57;;;3.22;;
43150;SDS011;28755;51.478;5.702;2023-07-24T09:18:20;5.32;;;3.88;;
43150;SDS011;28755;51.478;5.702;2023-07-24T09:20:46;4.80;;;3.60;;
43150;SDS011;28755;51.478;5.702;2023-07-24T09:23:13;7.72;;;3.40;;
43150;SDS011;28755;51.478;5.702;2023-07-24T09:25:40;4.22;;;3.60;;
43150;SDS011;28755;51.478;5.702;2023-07-24T09:28:14;5.47;;;3.75;;
43150;SDS011;28755;51.478;5.702;2023-07-24T09:30:41;4.72;;;3.45;;
43150;SDS011;28755;51.478;5.702;2023-07-24T09:33:15;6.05;;;4.05;;
43150;SDS011;28755;51.478;5.702;2023-07-24T09:35:41;7.15;;;3.60;;
43150;SDS011;28755;51.478;5.702;2023-07-24T09:38:08;6.22;;;3.70;;
43150;SDS011;28755;51.478;5.702;2023-07-24T09:40:38;5.30;;;3.78;;
43150;SDS011;28755;51.478;5.702;2023-07-24T09:45:41;5.45;;;3.13;;
43150;SDS011;28755;51.478;5.702;2023-07-24T09:48:08;4.57;;;3.22;;
43150;SDS011;28755;51.478;5.702;2023-07-24T09:50:36;4.32;;;2.95;;
43150;SDS011;28755;51.478;5.702;2023-07-24T09:53:03;4.60;;;3.30;;
43150;SDS011;28755;51.478;5.702;2023-07-24T09:55:32;4.18;;;3.20;;
43150;SDS011;28755;51.478;5.702;2023-07-24T09:58:05;4.18;;;3.17;;
43150;SDS011;28755;51.478;5.702;2023-07-24T10:00:32;7.85;;;3.47;;
43150;SDS011;28755;51.478;5.702;2023-07-24T10:02:58;5.65;;;3.53;;
43150;SDS011;28755;51.478;5.702;2023-07-24T10:05:24;5.35;;;3.67;;
43150;SDS011;28755;51.478;5.702;2023-07-24T10:07:50;6.70;;;3.45;;
43150;SDS011;28755;51.478;5.702;2023-07-24T10:10:17;4.97;;;3.78;;
43150;SDS011;28755;51.478;5.702;2023-07-24T10:12:43;7.03;;;3.85;;
43150;SDS011;28755;51.478;5.702;2023-07-24T10:15:09;6.03;;;4.03;;
43150;SDS011;28755;51.478;5.702;2023-07-24T10:17:36;5.88;;;3.97;;
43150;SDS011;28755;51.478;5.702;2023-07-24T10:20:07;5.20;;;3.72;;
43150;SDS011;28755;51.478;5.702;2023-07-24T10:22:34;7.15;;;3.67;;
43150;SDS011;28755;51.478;5.702;2023-07-24T10:25:00;6.65;;;3.60;;
43150;SDS011;28755;51.478;5.702;2023-07-24T10:27:26;5.65;;;4.05;;
43150;SDS011;28755;51.478;5.702;2023-07-24T10:30:00;5.95;;;4.00;;
43150;SDS011;28755;51.478;5.702;2023-07-24T10:32:27;5.60;;;4.10;;
43150;SDS011;28755;51.478;5.702;2023-07-24T10:34:59;5.95;;;3.92;;
43150;SDS011;28755;51.478;5.702;2023-07-24T10:37:31;7.25;;;4.63;;
43150;SDS011;28755;51.478;5.702;2023-07-24T10:39:58;5.82;;;4.20;;
43150;SDS011;28755;51.478;5.702;2023-07-24T10:42:24;6.07;;;4.40;;
43150;SDS011;28755;51.478;5.702;2023-07-24T10:44:49;6.15;;;4.80;;
43150;SDS011;28755;51.478;5.702;2023-07-24T10:47:26;5.68;;;3.90;;
43150;SDS011;28755;51.478;5.702;2023-07-24T10:49:51;8.90;;;4.65;;
43150;SDS011;28755;51.478;5.702;2023-07-24T10:52:17;10.65;;;4.55;;
43150;SDS011;28755;51.478;5.702;2023-07-24T10:54:42;6.07;;;4.50;;
43150;SDS011;28755;51.478;5.702;2023-07-24T10:57:08;7.20;;;4.85;;
43150;SDS011;28755;51.478;5.702;2023-07-24T10:59:35;7.55;;;4.63;;
43150;SDS011;28755;51.478;5.702;2023-07-24T11:02:04;7.60;;;4.85;;
43150;SDS011;28755;51.478;5.702;2023-07-24T11:04:32;5.95;;;4.70;;
43150;SDS011;28755;51.478;5.702;2023-07-24T11:06:58;5.13;;;4.43;;
43150;SDS011;28755;51.478;5.702;2023-07-24T11:09:35;8.48;;;4.72;;
43150;SDS011;28755;51.478;5.702;2023-07-24T11:12:12;7.18;;;5.45;;
43150;SDS011;28755;51.478;5.702;2023-07-24T11:14:45;6.78;;;5.13;;
43150;SDS011;28755;51.478;5.702;2023-07-24T11:17:12;9.88;;;5.07;;
43150;SDS011;28755;51.478;5.702;2023-07-24T11:19:38;7.10;;;4.40;;
43150;SDS011;28755;51.478;5.702;2023-07-24T11:22:03;6.53;;;4.47;;
43150;SDS011;28755;51.478;5.702;2023-07-24T11:24:29;5.47;;;4.25;;
43150;SDS011;28755;51.478;5.702;2023-07-24T11:26:55;6.65;;;4.63;;
43150;SDS011;28755;51.478;5.702;2023-07-24T11:29:20;5.35;;;3.63;;
43150;SDS011;28755;51.478;5.702;2023-07-24T11:31:46;5.32;;;4.25;;
43150;SDS011;28755;51.478;5.702;2023-07-24T11:34:12;6.32;;;4.70;;
43150;SDS011;28755;51.478;5.702;2023-07-24T11:36:37;6.28;;;4.20;;
43150;SDS011;28755;51.478;5.702;2023-07-24T11:39:03;5.88;;;3.63;;
43150;SDS011;28755;51.478;5.702;2023-07-24T11:41:29;5.40;;;3.78;;
43150;SDS011;28755;51.478;5.702;2023-07-24T11:43:54;5.15;;;4.00;;
43150;SDS011;28755;51.478;5.702;2023-07-24T11:46:24;4.78;;;3.92;;
43150;SDS011;28755;51.478;5.702;2023-07-24T11:51:18;4.00;;;3.55;;
43150;SDS011;28755;51.478;5.702;2023-07-24T11:53:44;3.83;;;3.25;;
43150;SDS011;28755;51.478;5.702;2023-07-24T11:56:13;5.03;;;3.35;;
43150;SDS011;28755;51.478;5.702;2023-07-24T12:01:05;4.15;;;3.38;;
43150;SDS011;28755;51.478;5.702;2023-07-24T12:03:31;5.43;;;3.35;;
43150;SDS011;28755;51.478;5.702;2023-07-24T12:05:57;4.70;;;3.50;;
43150;SDS011;28755;51.478;5.702;2023-07-24T12:08:33;4.15;;;3.75;;
43150;SDS011;28755;51.478;5.702;2023-07-24T12:11:00;5.18;;;3.80;;
43150;SDS011;28755;51.478;5.702;2023-07-24T12:13:25;5.65;;;3.58;;
43150;SDS011;28755;51.478;5.702;2023-07-24T12:15:52;4.35;;;3.92;;
43150;SDS011;28755;51.478;5.702;2023-07-24T12:18:17;6.97;;;4.35;;
43150;SDS011;28755;51.478;5.702;2023-07-24T12:20:43;4.97;;;3.78;;
43150;SDS011;28755;51.478;5.702;2023-07-24T12:23:09;5.60;;;4.47;;
43150;SDS011;28755;51.478;5.702;2023-07-24T12:25:34;5.07;;;4.45;;
43150;SDS011;28755;51.478;5.702;2023-07-24T12:28:00;5.25;;;4.25;;
43150;SDS011;28755;51.478;5.702;2023-07-24T12:30:25;7.75;;;4.35;;
43150;SDS011;28755;51.478;5.702;2023-07-24T12:32:51;6.75;;;5.20;;
43150;SDS011;28755;51.478;5.702;2023-07-24T12:35:17;7.50;;;4.82;;
43150;SDS011;28755;51.478;5.702;2023-07-24T12:37:42;8.13;;;4.90;;
43150;SDS011;28755;51.478;5.702;2023-07-24T12:40:09;6.45;;;4.90;;
43150;SDS011;28755;51.478;5.702;2023-07-24T12:42:34;7.53;;;5.43;;
43150;SDS011;28755;51.478;5.702;2023-07-24T12:45:00;5.45;;;4.78;;
43150;SDS011;28755;51.478;5.702;2023-07-24T12:47:28;5.00;;;4.50;;
43150;SDS011;28755;51.478;5.702;2023-07-24T12:49:53;9.55;;;4.88;;
43150;SDS011;28755;51.478;5.702;2023-07-24T12:52:20;6.45;;;4.70;;
43150;SDS011;28755;51.478;5.702;2023-07-24T12:54:46;6.93;;;4.72;;
43150;SDS011;28755;51.478;5.702;2023-07-24T12:57:11;6.15;;;4.60;;
43150;SDS011;28755;51.478;5.702;2023-07-24T12:59:37;5.10;;;4.57;;
43150;SDS011;28755;51.478;5.702;2023-07-24T13:02:03;7.32;;;5.20;;
43150;SDS011;28755;51.478;5.702;2023-07-24T13:04:28;9.77;;;4.53;;
43150;SDS011;28755;51.478;5.702;2023-07-24T13:06:54;6.68;;;4.40;;
43150;SDS011;28755;51.478;5.702;2023-07-24T13:09:19;4.88;;;4.38;;
43150;SDS011;28755;51.478;5.702;2023-07-24T13:11:45;5.80;;;4.40;;
43150;SDS011;28755;51.478;5.702;2023-07-24T13:14:13;6.90;;;4.25;;
43150;SDS011;28755;51.478;5.702;2023-07-24T13:16:39;8.00;;;4.68;;
43150;SDS011;28755;51.478;5.702;2023-07-24T13:19:05;5.47;;;4.28;;
43150;SDS011;28755;51.478;5.702;2023-07-24T13:21:30;7.13;;;4.40;;
43150;SDS011;28755;51.478;5.702;2023-07-24T13:23:56;6.40;;;4.82;;
43150;SDS011;28755;51.478;5.702;2023-07-24T13:26:22;6.95;;;5.18;;
43150;SDS011;28755;51.478;5.702;2023-07-24T13:28:47;5.93;;;4.60;;
43150;SDS011;28755;51.478;5.702;2023-07-24T13:33:44;8.65;;;5.13;;
43150;SDS011;28755;51.478;5.702;2023-07-24T13:36:10;7.05;;;4.93;;
43150;SDS011;28755;51.478;5.702;2023-07-24T13:38:36;5.03;;;4.13;;
43150;SDS011;28755;51.478;5.702;2023-07-24T13:41:02;11.93;;;4.57;;
43150;SDS011;28755;51.478;5.702;2023-07-24T13:43:29;6.32;;;4.72;;
43150;SDS011;28755;51.478;5.702;2023-07-24T13:45:55;7.28;;;4.80;;
43150;SDS011;28755;51.478;5.702;2023-07-24T13:48:21;9.95;;;4.80;;
43150;SDS011;28755;51.478;5.702;2023-07-24T13:50:47;7.82;;;5.25;;
43150;SDS011;28755;51.478;5.702;2023-07-24T13:53:14;5.78;;;4.25;;
43150;SDS011;28755;51.478;5.702;2023-07-24T13:55:39;6.38;;;3.88;;
43150;SDS011;28755;51.478;5.702;2023-07-24T13:58:05;6.05;;;4.25;;
43150;SDS011;28755;51.478;5.702;2023-07-24T14:00:30;7.97;;;4.57;;
43150;SDS011;28755;51.478;5.702;2023-07-24T14:02:56;7.47;;;5.03;;
43150;SDS011;28755;51.478;5.702;2023-07-24T14:05:21;6.32;;;4.10;;
43150;SDS011;28755;51.478;5.702;2023-07-24T14:07:47;6.53;;;4.38;;
43150;SDS011;28755;51.478;5.702;2023-07-24T14:10:12;5.32;;;4.40;;
43150;SDS011;28755;51.478;5.702;2023-07-24T14:12:38;6.63;;;4.63;;
43150;SDS011;28755;51.478;5.702;2023-07-24T14:15:04;7.65;;;4.57;;
43150;SDS011;28755;51.478;5.702;2023-07-24T14:17:30;7.85;;;4.70;;
43150;SDS011;28755;51.478;5.702;2023-07-24T14:19:55;17.67;;;4.38;;
43150;SDS011;28755;51.478;5.702;2023-07-24T14:22:21;6.97;;;4.47;;
43150;SDS011;28755;51.478;5.702;2023-07-24T14:24:46;9.20;;;4.50;;
43150;SDS011;28755;51.478;5.702;2023-07-24T14:27:13;7.70;;;4.80;;
43150;SDS011;28755;51.478;5.702;2023-07-24T14:29:38;9.80;;;5.72;;
43150;SDS011;28755;51.478;5.702;2023-07-24T14:32:04;10.30;;;6.15;;
43150;SDS011;28755;51.478;5.702;2023-07-24T14:34:31;8.68;;;6.70;;
43150;SDS011;28755;51.478;5.702;2023-07-24T14:36:56;10.25;;;5.70;;
43150;SDS011;28755;51.478;5.702;2023-07-24T14:39:22;7.70;;;5.85;;
43150;SDS011;28755;51.478;5.702;2023-07-24T14:41:47;12.18;;;5.68;;
43150;SDS011;28755;51.478;5.702;2023-07-24T14:44:13;7.65;;;5.22;;
43150;SDS011;28755;51.478;5.702;2023-07-24T14:46:38;8.73;;;5.25;;
43150;SDS011;28755;51.478;5.702;2023-07-24T14:49:04;5.93;;;4.07;;
43150;SDS011;28755;51.478;5.702;2023-07-24T14:51:29;7.43;;;4.57;;
43150;SDS011;28755;51.478;5.702;2023-07-24T14:53:55;7.38;;;4.53;;